EST,Max TemperatureF,Mean TemperatureF,Min TemperatureF,Max Dew PointF,MeanDew PointF,Min DewpointF,Max Humidity, Mean Humidity, Min Humidity, Max Sea Level PressureIn, Mean Sea Level PressureIn, Min Sea Level PressureIn, Max VisibilityMiles, Mean VisibilityMiles, Min VisibilityMiles, Max Wind SpeedMPH, Mean Wind SpeedMPH, Max Gust SpeedMPH,PrecipitationIn, CloudCover, Events, WindDirDegrees
2011-11-1,50,40,30,41,30,27,87,72,50,30.41,30.38,30.35,10,10,7,9,1,,0.00,1,,163
2011-11-2,51,38,26,39,31,21,87,74,54,30.40,30.32,30.23,10,10,10,12,3,,0.00,0,,223
2011-11-3,55,44,33,43,40,28,87,75,62,30.20,30.00,29.82,10,10,7,14,6,21,0.00,0,,221
2011-11-4,48,44,39,39,27,19,76,52,34,30.10,29.94,29.83,10,10,10,14,7,24,0.00,3,,322
2011-11-5,48,38,26,25,21,19,74,54,34,30.44,30.35,30.19,10,10,10,9,5,,0.00,0,,329
2011-11-6,51,38,24,32,26,19,86,65,41,30.43,30.38,30.29,10,10,10,13,5,16,0.00,0,,255
2011-11-7,55,42,28,37,31,23,93,68,43,30.24,30.17,30.10,10,10,8,10,5,,0.00,0,,243
2011-11-8,62,48,33,43,36,28,87,67,31,30.23,30.17,30.11,10,9,2,13,4,18,0.00,0,,264
2011-11-9,55,46,37,48,44,32,88,83,77,30.23,30.18,30.12,10,6,0,8,3,,0.00,1,,95
2011-11-10,57,54,51,52,50,46,88,84,82,30.08,29.88,29.49,10,5,1,17,6,24,0.13,8,,141
2011-11-11,55,46,37,52,36,25,94,73,56,29.68,29.42,29.31,10,9,1,16,10,22,0.39,6,,289
2011-11-12,48,40,33,32,26,19,65,55,49,30.02,29.92,29.70,10,10,10,18,11,26,0.00,1,,244
2011-11-13,53,42,30,46,39,25,93,76,57,30.16,30.07,29.93,10,10,5,14,5,21,0.00,0,,199
2011-11-14,57,55,53,48,45,41,82,68,55,29.89,29.78,29.70,10,10,7,17,11,25,0.02,3,,224
2011-11-15,59,50,42,52,46,36,82,77,54,29.90,29.71,29.57,10,9,5,15,7,22,0.29,3,,246
2011-11-16,55,44,33,48,40,28,88,80,58,29.96,29.87,29.68,10,8,0,14,2,16,0.18,4,,178
2011-11-17,51,48,44,48,36,27,88,64,46,29.76,29.70,29.64,10,10,6,9,5,,0.00,7,,305
2011-11-18,42,34,26,28,20,16,81,54,34,30.32,30.18,29.97,10,10,10,20,10,31,0.00,0,,275
2011-11-19,48,39,30,36,28,21,70,54,46,30.33,30.24,30.17,10,10,10,23,10,32,0.00,2,,231
2011-11-20,55,50,46,43,39,34,82,63,54,30.11,29.97,29.85,10,10,10,24,14,33,0.00,4,,236
2011-11-21,48,36,23,34,18,9,74,50,33,30.38,30.28,30.07,10,10,10,10,5,20,0.00,1,,355
2011-11-22,42,32,21,28,22,14,86,72,49,30.41,30.38,30.33,10,10,10,10,2,,0.00,0,,312
2011-11-23,37,32,28,32,27,19,87,79,69,30.29,29.92,29.68,10,7,1,25,13,38,0.78,8,,44
2011-11-24,35,30,26,27,22,18,75,68,60,30.12,30.04,29.92,10,10,10,12,6,20,0.00,1,,330
2011-11-25,50,37,24,39,33,19,93,79,62,30.08,29.98,29.90,10,9,2,14,3,20,0.00,1,,241
2011-11-26,55,44,33,37,34,27,87,72,47,30.25,30.10,29.97,10,9,3,10,3,,0.00,3,,291
2011-11-27,51,45,39,46,40,34,87,80,71,30.30,30.23,30.11,10,10,8,16,9,21,0.00,5,,96
2011-11-28,57,54,51,48,47,45,82,77,72,30.10,30.02,29.98,10,10,8,18,10,29,0.00,2,,236
2011-11-29,55,50,44,48,43,37,87,78,71,30.15,30.10,29.93,10,10,8,10,6,,0.00,7,,73
2011-11-30,57,50,44,52,44,34,88,74,62,29.86,29.65,29.55,10,9,1,22,14,31,0.20,4,,196